createdAt,value
2023-03-21T00:00:01.619Z,9.8
2023-03-21T00:01:01.646Z,9.8
2023-03-21T00:02:01.346Z,9.8
2023-03-21T00:03:02.359Z,9.8
2023-03-21T00:04:02.349Z,9.8
2023-03-21T00:05:09.544Z,9.8
2023-03-21T00:06:01.952Z,9.8
2023-03-21T00:07:02.019Z,9.8
2023-03-21T00:08:02.738Z,9.8
2023-03-21T00:09:01.695Z,9.8
2023-03-21T00:10:12.751Z,9.7
2023-03-21T00:11:01.850Z,9.8
2023-03-21T00:12:01.770Z,9.8
2023-03-21T00:13:01.803Z,9.8
2023-03-21T00:14:01.663Z,9.7
2023-03-21T00:15:02.032Z,9.7
2023-03-21T00:16:06.129Z,9.7
2023-03-21T00:17:02.034Z,9.8
2023-03-21T00:18:02.418Z,9.8
2023-03-21T00:19:02.316Z,9.8
2023-03-21T00:20:02.385Z,9.7
2023-03-21T00:21:29.659Z,9.7
2023-03-21T00:22:07.764Z,9.7
2023-03-21T00:23:01.942Z,9.7
2023-03-21T00:24:01.796Z,9.7
2023-03-21T00:25:01.722Z,9.7
2023-03-21T00:26:01.698Z,9.6
2023-03-21T00:27:21.872Z,9.7
2023-03-21T00:28:08.186Z,9.6
2023-03-21T00:29:01.661Z,9.6
2023-03-21T00:30:01.517Z,9.7
2023-03-21T00:31:01.538Z,9.7
2023-03-21T00:32:01.466Z,9.7
2023-03-21T00:33:05.847Z,9.6
2023-03-21T00:34:01.344Z,9.7
2023-03-21T00:35:34.692Z,9.7
2023-03-21T00:36:05.089Z,9.6
2023-03-21T00:37:01.397Z,9.7
2023-03-21T00:38:01.430Z,9.7
2023-03-21T00:39:02.415Z,9.7
2023-03-21T00:40:02.355Z,9.7
2023-03-21T00:41:04.916Z,9.7
2023-03-21T00:42:01.546Z,9.7
2023-03-21T00:43:01.595Z,9.7
2023-03-21T00:44:01.454Z,9.7
2023-03-21T00:45:01.476Z,9.6
2023-03-21T00:46:01.316Z,9.6
2023-03-21T00:47:07.328Z,9.6
2023-03-21T00:48:02.055Z,9.6
2023-03-21T00:49:02.267Z,9.7
2023-03-21T00:50:02.223Z,9.7
2023-03-21T00:51:02.317Z,9.6
2023-03-21T00:52:08.867Z,9.6
2023-03-21T00:53:01.567Z,9.6
2023-03-21T00:54:01.596Z,9.6
2023-03-21T00:55:01.441Z,9.7
2023-03-21T00:56:01.417Z,9.7
2023-03-21T00:57:02.405Z,9.7
2023-03-21T00:58:02.748Z,9.7
2023-03-21T00:59:01.744Z,9.7
2023-03-21T01:00:02.162Z,9.7
2023-03-21T01:01:02.052Z,9.6
2023-03-21T01:02:01.924Z,9.6
2023-03-21T01:03:08.771Z,9.6
2023-03-21T01:04:01.964Z,9.7
2023-03-21T01:05:01.861Z,9.7
2023-03-21T01:06:01.899Z,9.7
2023-03-21T01:07:01.920Z,9.7
2023-03-21T01:08:02.903Z,9.7
2023-03-21T01:09:01.328Z,9.7
2023-03-21T01:10:02.408Z,9.6
2023-03-21T01:11:02.278Z,9.7
2023-03-21T01:12:02.373Z,9.6
2023-03-21T01:13:02.272Z,9.6
2023-03-21T01:14:15.066Z,9.6
2023-03-21T01:15:01.408Z,9.6
2023-03-21T01:16:01.521Z,9.7
2023-03-21T01:17:01.654Z,9.7
2023-03-21T01:18:01.676Z,9.7
2023-03-21T01:19:03.388Z,9.6
2023-03-21T01:20:01.582Z,9.6
2023-03-21T01:21:01.581Z,9.6
2023-03-21T01:22:01.499Z,9.6
2023-03-21T01:23:01.475Z,9.5
2023-03-21T01:24:01.403Z,9.6
2023-03-21T01:25:12.342Z,9.6
2023-03-21T01:26:01.701Z,9.6
2023-03-21T01:27:01.744Z,9.6
2023-03-21T01:28:01.580Z,9.6
2023-03-21T01:29:01.624Z,9.6
2023-03-21T01:30:02.532Z,9.5
2023-03-21T01:31:01.803Z,9.5
2023-03-21T01:32:01.401Z,9.6
2023-03-21T01:33:01.457Z,9.5
2023-03-21T01:34:01.404Z,9.6
2023-03-21T01:35:01.810Z,9.6
2023-03-21T01:36:12.013Z,9.5
2023-03-21T01:37:01.444Z,9.5
2023-03-21T01:38:01.472Z,9.6
2023-03-21T01:39:02.391Z,9.6
2023-03-21T01:40:02.328Z,9.5
2023-03-21T01:41:04.289Z,9.6
2023-03-21T01:42:01.665Z,9.6
2023-03-21T01:43:01.718Z,9.6
2023-03-21T01:44:01.566Z,9.6
2023-03-21T01:45:01.619Z,9.6
2023-03-21T01:46:01.534Z,9.5
2023-03-21T01:47:10.829Z,9.5
2023-03-21T01:48:01.556Z,9.5
2023-03-21T01:49:01.587Z,9.5
2023-03-21T01:50:01.396Z,9.5
2023-03-21T01:51:01.430Z,9.6
2023-03-21T01:52:10.124Z,9.6
2023-03-21T01:53:01.855Z,9.5
2023-03-21T01:54:01.924Z,9.5
2023-03-21T01:55:01.775Z,9.6
2023-03-21T01:56:01.705Z,9.6
2023-03-21T01:57:01.779Z,9.6
2023-03-21T01:58:06.146Z,9.6
2023-03-21T01:59:02.176Z,9.6
2023-03-21T02:00:02.278Z,9.6
2023-03-21T02:01:02.212Z,9.7
2023-03-21T02:02:01.547Z,9.6
2023-03-21T02:03:11.438Z,9.6
2023-03-21T02:04:01.430Z,9.7
2023-03-21T02:05:01.450Z,9.7
2023-03-21T02:06:01.330Z,9.5
2023-03-21T02:07:02.394Z,9.5
2023-03-21T02:08:02.304Z,9.5
2023-03-21T02:09:02.365Z,9.5
2023-03-21T02:10:02.256Z,9.6
2023-03-21T02:11:02.376Z,9.5
2023-03-21T02:12:02.272Z,9.5
2023-03-21T02:13:02.384Z,9.5
2023-03-21T02:14:06.513Z,9.5
2023-03-21T02:15:02.308Z,9.5
2023-03-21T02:16:02.385Z,9.4
2023-03-21T02:17:02.146Z,9.4
2023-03-21T02:18:02.101Z,9.4
2023-03-21T02:19:02.008Z,9.4
2023-03-21T02:20:01.993Z,9.5
2023-03-21T02:21:02.409Z,9.5
2023-03-21T02:22:02.181Z,9.6
2023-03-21T02:23:02.269Z,9.7
2023-03-21T02:24:02.168Z,9.7
2023-03-21T02:25:06.123Z,9.6
2023-03-21T02:26:02.146Z,9.6
2023-03-21T02:27:04.182Z,9.5
2023-03-21T02:28:01.605Z,9.5
2023-03-21T02:29:01.665Z,9.4
2023-03-21T02:30:01.545Z,9.5
2023-03-21T02:31:01.697Z,9.4
2023-03-21T02:32:15.069Z,9.4
2023-03-21T02:33:01.442Z,9.3
2023-03-21T02:34:01.511Z,9.4
2023-03-21T02:35:01.379Z,9.4
2023-03-21T02:36:08.753Z,9.4
2023-03-21T02:37:01.592Z,9.3
2023-03-21T02:38:01.632Z,9.4
2023-03-21T02:39:01.547Z,9.4
2023-03-21T02:40:01.543Z,9.4
2023-03-21T02:41:01.877Z,9.3
2023-03-21T02:42:02.126Z,9.3
2023-03-21T02:43:02.276Z,9.3
2023-03-21T02:44:01.431Z,9.3
2023-03-21T02:45:01.458Z,9.4
2023-03-21T02:46:01.402Z,9.4
2023-03-21T02:47:05.777Z,9.3
2023-03-21T02:48:01.674Z,9.3
2023-03-21T02:49:01.732Z,9.3
2023-03-21T02:50:01.660Z,9.4
2023-03-21T02:51:01.706Z,9.5
2023-03-21T02:52:12.137Z,9.4
2023-03-21T02:53:01.852Z,9.4
2023-03-21T02:54:26.333Z,9.4
2023-03-21T02:55:02.331Z,9.4
2023-03-21T02:56:02.203Z,9.4
2023-03-21T02:57:02.304Z,9.4
2023-03-21T02:58:12.258Z,9.5
2023-03-21T02:59:02.301Z,9.5
2023-03-21T03:00:07.643Z,9.5
2023-03-21T03:01:01.357Z,9.4
2023-03-21T03:02:02.165Z,9.4
2023-03-21T03:03:09.174Z,9.5
2023-03-21T03:04:01.445Z,9.5
2023-03-21T03:05:02.852Z,9.3
2023-03-21T03:06:02.107Z,9.3
2023-03-21T03:07:02.068Z,9.5
2023-03-21T03:08:02.105Z,9.4
2023-03-21T03:09:03.043Z,9.5
2023-03-21T03:10:02.041Z,9.4
2023-03-21T03:11:02.112Z,9.5
2023-03-21T03:12:01.967Z,9.6
2023-03-21T03:13:01.926Z,9.5
2023-03-21T03:14:11.198Z,9.4
2023-03-21T03:15:03.774Z,9.4
2023-03-21T03:16:02.278Z,9.5
2023-03-21T03:17:01.516Z,9.4
2023-03-21T03:18:01.460Z,9.4
2023-03-21T03:19:01.573Z,9.5
2023-03-21T03:20:13.821Z,9.5
2023-03-21T03:21:02.065Z,9.5
2023-03-21T03:22:02.074Z,9.4
2023-03-21T03:23:01.992Z,9.3
2023-03-21T03:24:01.956Z,9.4
2023-03-21T03:25:09.481Z,9.2
2023-03-21T03:26:01.407Z,9.2
2023-03-21T03:27:01.396Z,9.3
2023-03-21T03:28:02.422Z,9.3
2023-03-21T03:29:02.270Z,9.4
2023-03-21T03:30:02.380Z,9.4
2023-03-21T03:31:09.006Z,9.2
2023-03-21T03:32:01.946Z,9.3
2023-03-21T03:33:02.036Z,9.3
2023-03-21T03:34:01.913Z,9.3
2023-03-21T03:35:01.834Z,9.2
2023-03-21T03:36:06.324Z,9.2
2023-03-21T03:37:02.139Z,9.3
2023-03-21T03:38:02.125Z,9.2
2023-03-21T03:39:02.206Z,9.2
2023-03-21T03:40:02.076Z,9.2
2023-03-21T03:41:02.155Z,9.3
2023-03-21T03:42:12.364Z,9.2
2023-03-21T03:43:01.501Z,9.2
2023-03-21T03:44:01.524Z,9.2
2023-03-21T03:45:01.452Z,9.2
2023-03-21T03:46:01.432Z,9.1
2023-03-21T03:47:01.368Z,9.2
2023-03-21T03:48:01.489Z,9.1
2023-03-21T03:49:01.403Z,9.1
2023-03-21T03:50:01.428Z,9.1
2023-03-21T03:51:02.367Z,9.1
2023-03-21T03:52:02.325Z,9
2023-03-21T03:53:07.063Z,9.1
2023-03-21T03:54:02.274Z,9.2
2023-03-21T03:55:02.314Z,9
2023-03-21T03:56:02.204Z,9.1
2023-03-21T03:57:02.333Z,9.1
2023-03-21T03:58:04.620Z,9.1
2023-03-21T03:59:02.099Z,9.1
2023-03-21T04:00:02.651Z,9.1
2023-03-21T04:01:01.479Z,9.1
2023-03-21T04:02:02.065Z,9.1
2023-03-21T04:03:02.180Z,9.2
2023-03-21T04:04:12.474Z,9.2
2023-03-21T04:05:01.586Z,9.1
2023-03-21T04:06:01.590Z,9.1
2023-03-21T04:07:01.502Z,9
2023-03-21T04:08:01.551Z,9
2023-03-21T04:09:03.406Z,9.1
2023-03-21T04:10:01.507Z,9.1
2023-03-21T04:11:01.580Z,9.1
2023-03-21T04:12:01.426Z,9
2023-03-21T04:13:01.526Z,9.1
2023-03-21T04:14:01.363Z,9.1
2023-03-21T04:15:09.903Z,9
2023-03-21T04:16:02.026Z,9.1
2023-03-21T04:17:01.410Z,9
2023-03-21T04:18:01.471Z,9
2023-03-21T04:19:01.339Z,8.9
2023-03-21T04:20:11.257Z,9
2023-03-21T04:21:01.355Z,9
2023-03-21T04:22:01.417Z,9
2023-03-21T04:23:02.395Z,9
2023-03-21T04:24:02.318Z,9
2023-03-21T04:25:02.329Z,8.9
2023-03-21T04:26:02.292Z,9
2023-03-21T04:27:02.284Z,8.9
2023-03-21T04:28:02.282Z,9
2023-03-21T04:29:02.293Z,9
2023-03-21T04:30:02.228Z,9
2023-03-21T04:31:08.679Z,9
2023-03-21T04:32:01.745Z,9
2023-03-21T04:33:02.143Z,9
2023-03-21T04:34:01.996Z,9
2023-03-21T04:35:01.939Z,9
2023-03-21T04:36:02.053Z,9
2023-03-21T04:37:01.958Z,9
2023-03-21T04:38:01.831Z,9
2023-03-21T04:39:01.905Z,9
2023-03-21T04:40:01.766Z,9
2023-03-21T04:41:02.048Z,8.9
2023-03-21T04:42:02.163Z,9
2023-03-21T04:43:02.021Z,8.9
2023-03-21T04:44:01.988Z,8.9
2023-03-21T04:45:01.992Z,9
2023-03-21T04:46:01.939Z,8.9
2023-03-21T04:47:02.026Z,8.9
2023-03-21T04:48:02.161Z,8.9
2023-03-21T04:49:02.080Z,8.9
2023-03-21T04:50:02.060Z,8.9
2023-03-21T04:51:02.135Z,8.9
2023-03-21T04:52:01.984Z,8.9
2023-03-21T04:53:01.956Z,8.8
2023-03-21T04:54:02.030Z,8.9
2023-03-21T04:55:01.870Z,8.8
2023-03-21T04:56:01.842Z,8.9
2023-03-21T04:57:01.910Z,8.8
2023-03-21T04:58:01.759Z,8.8
2023-03-21T04:59:01.809Z,8.8
2023-03-21T05:00:02.625Z,8.8
2023-03-21T05:01:01.532Z,8.7
2023-03-21T05:02:01.704Z,8.8
2023-03-21T05:03:01.780Z,8.8
2023-03-21T05:04:01.729Z,9
2023-03-21T05:05:02.018Z,9
2023-03-21T05:06:02.092Z,9
2023-03-21T05:07:01.935Z,9
2023-03-21T05:08:01.849Z,9
2023-03-21T05:09:01.940Z,9
2023-03-21T05:10:02.509Z,9
2023-03-21T05:11:01.527Z,9
2023-03-21T05:12:01.547Z,9
2023-03-21T05:13:01.461Z,9
2023-03-21T05:14:01.440Z,8.8
2023-03-21T05:15:01.316Z,8.8
2023-03-21T05:16:02.389Z,8.9
2023-03-21T05:17:02.065Z,8.9
2023-03-21T05:18:02.076Z,8.7
2023-03-21T05:19:01.981Z,8.7
2023-03-21T05:20:01.997Z,8.8
2023-03-21T05:21:02.038Z,8.9
2023-03-21T05:22:01.955Z,8.8
2023-03-21T05:23:01.887Z,8.8
2023-03-21T05:24:01.925Z,8.8
2023-03-21T05:25:01.825Z,8.7
2023-03-21T05:26:01.808Z,8.8
2023-03-21T05:27:01.798Z,8.8
2023-03-21T05:28:01.712Z,8.8
2023-03-21T05:29:01.476Z,8.7
2023-03-21T05:30:01.301Z,8.8
2023-03-21T05:31:02.405Z,8.8
2023-03-21T05:32:02.233Z,8.8
2023-03-21T05:33:02.334Z,8.8
2023-03-21T05:34:02.220Z,8.9
2023-03-21T05:35:02.364Z,8.9
2023-03-21T05:36:02.219Z,9
2023-03-21T05:37:02.303Z,8.9
2023-03-21T05:38:02.204Z,8.8
2023-03-21T05:39:02.264Z,8.9
2023-03-21T05:40:02.158Z,8.9
2023-03-21T05:41:02.268Z,8.8
2023-03-21T05:42:02.154Z,8.9
2023-03-21T05:43:02.200Z,9
2023-03-21T05:44:02.076Z,8.9
2023-03-21T05:45:02.120Z,9
2023-03-21T05:46:02.181Z,8.9
2023-03-21T05:47:01.899Z,9
2023-03-21T05:48:02.008Z,9
2023-03-21T05:49:01.971Z,8.9
2023-03-21T05:50:01.943Z,8.8
2023-03-21T05:51:01.971Z,8.9
2023-03-21T05:52:01.870Z,9
2023-03-21T05:53:01.815Z,9
2023-03-21T05:54:01.904Z,9
2023-03-21T05:55:01.768Z,9
2023-03-21T05:56:01.753Z,9
2023-03-21T05:57:01.781Z,9
2023-03-21T05:58:01.630Z,9
2023-03-21T05:59:01.670Z,9
2023-03-21T06:00:02.316Z,9.1
2023-03-21T06:01:02.275Z,9.2
2023-03-21T06:02:01.394Z,9.1
2023-03-21T06:03:01.483Z,9
2023-03-21T06:04:01.573Z,9.1
2023-03-21T06:05:01.565Z,9.2
2023-03-21T06:06:01.464Z,9.1
2023-03-21T06:07:01.494Z,9.1
2023-03-21T06:08:01.333Z,9.2
2023-03-21T06:09:02.327Z,9.1
2023-03-21T06:10:02.246Z,9.1
2023-03-21T06:11:02.323Z,9.2
2023-03-21T06:12:02.233Z,9.1
2023-03-21T06:13:02.278Z,9.1
2023-03-21T06:14:02.115Z,9.1
2023-03-21T06:15:02.155Z,9.2
2023-03-21T06:16:02.038Z,9.1
2023-03-21T06:17:01.942Z,9
2023-03-21T06:18:02.002Z,9.2
2023-03-21T06:19:01.872Z,9
2023-03-21T06:20:01.793Z,9
2023-03-21T06:21:01.837Z,9
2023-03-21T06:22:01.806Z,9.1
2023-03-21T06:23:01.738Z,9.2
2023-03-21T06:24:01.763Z,9.2
2023-03-21T06:25:01.554Z,9.3
2023-03-21T06:26:01.551Z,9.2
2023-03-21T06:27:03.500Z,9.3
2023-03-21T06:28:01.801Z,9.3
2023-03-21T06:29:01.870Z,9.2
2023-03-21T06:30:01.706Z,9.1
2023-03-21T06:31:01.859Z,9.1
2023-03-21T06:32:01.680Z,9.1
2023-03-21T06:33:01.727Z,9.1
2023-03-21T06:34:01.579Z,9.1
2023-03-21T06:35:01.629Z,9.1
2023-03-21T06:36:01.505Z,9.1
2023-03-21T06:37:01.557Z,9.2
2023-03-21T06:38:01.451Z,9.1
2023-03-21T06:39:01.485Z,9.2
2023-03-21T06:40:01.354Z,9.3
2023-03-21T06:41:02.413Z,9.3
2023-03-21T06:42:02.278Z,9.2
2023-03-21T06:43:02.360Z,9.4
2023-03-21T06:44:02.237Z,9.3
2023-03-21T06:45:02.323Z,9.2
2023-03-21T06:46:02.169Z,9.2
2023-03-21T06:47:02.413Z,9.2
2023-03-21T06:48:01.477Z,9.3
2023-03-21T06:49:01.367Z,9.2
2023-03-21T06:50:02.438Z,9.2
2023-03-21T06:51:02.287Z,9.3
2023-03-21T06:52:02.292Z,9.4
2023-03-21T06:53:02.193Z,9.3
2023-03-21T06:54:02.275Z,9.3
2023-03-21T06:55:02.146Z,9.2
2023-03-21T06:56:02.173Z,9.3
2023-03-21T06:57:02.046Z,9.3
2023-03-21T06:58:02.086Z,9.2
2023-03-21T06:59:01.944Z,9.3
2023-03-21T07:00:01.858Z,9.2
2023-03-21T07:01:01.928Z,9.2
2023-03-21T07:02:01.573Z,9.3
2023-03-21T07:03:01.659Z,9.3
2023-03-21T07:04:01.846Z,9.3
2023-03-21T07:05:01.795Z,9.4
2023-03-21T07:06:01.797Z,9.3
2023-03-21T07:07:01.698Z,9.4
2023-03-21T07:08:01.711Z,9.3
2023-03-21T07:09:01.605Z,9.3
2023-03-21T07:10:01.596Z,9.2
2023-03-21T07:11:01.435Z,9.3
2023-03-21T07:12:01.502Z,9.3
2023-03-21T07:13:01.405Z,9.3
2023-03-21T07:14:01.450Z,9.4
2023-03-21T07:15:02.420Z,9.3
2023-03-21T07:16:02.302Z,9.3
2023-03-21T07:17:01.378Z,9.3
2023-03-21T07:18:02.423Z,9.2
2023-03-21T07:19:02.293Z,9.3
2023-03-21T07:20:02.307Z,9.4
2023-03-21T07:21:02.290Z,9.4
2023-03-21T07:22:02.202Z,9.4
2023-03-21T07:23:02.120Z,9.4
2023-03-21T07:24:02.162Z,9.4
2023-03-21T07:25:04.984Z,9.4
2023-03-21T07:26:01.598Z,9.5
2023-03-21T07:27:01.644Z,9.5
2023-03-21T07:28:01.451Z,9.4
2023-03-21T07:29:01.464Z,9.5
2023-03-21T07:30:01.333Z,9.5
2023-03-21T07:31:02.402Z,9.4
2023-03-21T07:32:02.040Z,9.5
2023-03-21T07:33:02.186Z,9.3
2023-03-21T07:34:02.153Z,9.4
2023-03-21T07:35:02.256Z,9.3
2023-03-21T07:36:02.171Z,9.5
2023-03-21T07:37:02.336Z,9.4
2023-03-21T07:38:02.341Z,9.5
2023-03-21T07:39:02.414Z,9.5
2023-03-21T07:40:01.347Z,9.5
2023-03-21T07:41:02.442Z,9.6
2023-03-21T07:42:02.302Z,9.6
2023-03-21T07:44:02.320Z,9.6
2023-03-21T07:45:02.457Z,9.7
2023-03-21T07:46:01.376Z,9.7
2023-03-21T07:47:01.749Z,9.8
2023-03-21T07:48:01.880Z,9.7
2023-03-21T07:49:01.791Z,9.8
2023-03-21T07:50:01.776Z,9.8
2023-03-21T07:51:01.796Z,9.8
2023-03-21T07:52:02.978Z,9.8
2023-03-21T07:53:01.764Z,9.8
2023-03-21T07:54:01.752Z,9.8
2023-03-21T07:55:01.601Z,9.8
2023-03-21T07:56:01.586Z,9.8
2023-03-21T07:57:01.461Z,9.9
2023-03-21T07:58:01.504Z,9.9
2023-03-21T07:59:01.371Z,9.9
2023-03-21T08:00:01.707Z,9.8
2023-03-21T08:01:01.556Z,9.8
2023-03-21T08:02:02.245Z,9.9
2023-03-21T08:03:02.393Z,9.9
2023-03-21T08:04:01.443Z,9.9
2023-03-21T08:05:01.465Z,9.9
2023-03-21T08:06:01.376Z,9.8
2023-03-21T08:07:02.394Z,9.9
2023-03-21T08:08:02.274Z,9.9
2023-03-21T08:09:02.347Z,9.8
2023-03-21T08:10:02.205Z,9.9
2023-03-21T08:11:02.281Z,10
2023-03-21T08:12:02.249Z,10
2023-03-21T08:13:02.352Z,10
2023-03-21T08:14:02.218Z,9.9
2023-03-21T08:15:02.367Z,10
2023-03-21T08:16:02.243Z,10
2023-03-21T08:17:02.363Z,9.9
2023-03-21T08:18:01.369Z,10
2023-03-21T08:19:02.427Z,9.9
2023-03-21T08:20:02.263Z,10
2023-03-21T08:21:02.347Z,10
2023-03-21T08:22:02.218Z,10
2023-03-21T08:23:02.296Z,10.1
2023-03-21T08:24:02.151Z,10.1
2023-03-21T08:25:02.168Z,10.1
2023-03-21T08:26:02.068Z,9.9
2023-03-21T08:27:02.164Z,10
2023-03-21T08:28:02.016Z,9.9
2023-03-21T08:29:01.995Z,10
2023-03-21T08:30:02.048Z,10
2023-03-21T08:31:02.090Z,10
2023-03-21T08:32:01.859Z,10
2023-03-21T08:33:02.128Z,10.1
2023-03-21T08:34:01.974Z,10.2
2023-03-21T08:35:01.975Z,10.1
2023-03-21T08:36:02.119Z,10.2
2023-03-21T08:37:01.993Z,10.2
2023-03-21T08:38:01.937Z,10.2
2023-03-21T08:39:02.044Z,10.1
2023-03-21T08:40:02.030Z,10.1
2023-03-21T08:41:02.131Z,10.1
2023-03-21T08:42:02.223Z,10.2
2023-03-21T08:43:02.091Z,10.2
2023-03-21T08:44:02.169Z,10.1
2023-03-21T08:45:02.019Z,10.2
2023-03-21T08:46:02.018Z,10.2
2023-03-21T08:47:01.418Z,10.2
2023-03-21T08:48:01.595Z,10
2023-03-21T08:49:01.546Z,10.2
2023-03-21T08:50:01.558Z,10.2
2023-03-21T08:51:01.460Z,10.1
2023-03-21T08:52:01.530Z,10.1
2023-03-21T08:53:01.380Z,10
2023-03-21T08:54:01.368Z,10.1
2023-03-21T08:55:02.401Z,10
2023-03-21T08:56:02.234Z,10.1
2023-03-21T08:57:02.277Z,9.9
2023-03-21T08:58:02.178Z,10.1
2023-03-21T08:59:02.250Z,10.1
2023-03-21T09:00:02.122Z,9.8
2023-03-21T09:01:02.176Z,10
2023-03-21T09:02:01.936Z,10
2023-03-21T09:03:02.092Z,10.1
2023-03-21T09:04:02.179Z,10
2023-03-21T09:05:02.185Z,10
2023-03-21T09:06:02.241Z,10.1
2023-03-21T09:07:02.311Z,10
2023-03-21T09:08:02.176Z,9.8
2023-03-21T09:09:02.191Z,10
2023-03-21T09:10:19.453Z,10.1
2023-03-21T09:11:01.486Z,10.1
2023-03-21T09:12:01.544Z,10.1
2023-03-21T09:13:01.379Z,10.1
2023-03-21T09:14:01.376Z,10.2
2023-03-21T09:15:02.347Z,10.1
2023-03-21T09:16:02.409Z,10.2
2023-03-21T09:17:02.333Z,10.2
2023-03-21T09:18:02.355Z,10.2
2023-03-21T09:19:02.261Z,10.1
2023-03-21T09:20:02.338Z,10.1
2023-03-21T09:21:02.195Z,10.3
2023-03-21T09:22:02.248Z,10.3
2023-03-21T09:23:02.184Z,10.2
2023-03-21T09:24:02.125Z,10.2
2023-03-21T09:25:01.985Z,10.3
2023-03-21T09:26:01.919Z,10.3
2023-03-21T09:27:01.936Z,10.3
2023-03-21T09:28:01.858Z,10.3
2023-03-21T09:29:01.805Z,10.2
2023-03-21T09:30:01.819Z,10
2023-03-21T09:31:01.750Z,10
2023-03-21T09:32:01.742Z,10
2023-03-21T09:33:01.746Z,10
2023-03-21T09:34:01.638Z,10.1
2023-03-21T09:35:01.674Z,10
2023-03-21T09:36:01.610Z,10.1
2023-03-21T09:37:01.749Z,10.1
2023-03-21T09:38:01.538Z,10.1
2023-03-21T09:39:01.609Z,10.1
2023-03-21T09:40:01.395Z,10.1
2023-03-21T09:41:01.454Z,10
2023-03-21T09:42:01.326Z,10
2023-03-21T09:43:02.393Z,10.1
2023-03-21T09:44:02.302Z,10.1
2023-03-21T09:45:02.297Z,10.2
2023-03-21T09:46:02.223Z,10.3
2023-03-21T09:47:02.133Z,10.2
2023-03-21T09:48:02.193Z,10.1
2023-03-21T09:49:02.082Z,10.2
2023-03-21T09:50:13.401Z,10.3
2023-03-21T09:51:02.055Z,10.1
2023-03-21T09:52:02.109Z,10.1
2023-03-21T09:53:01.937Z,10.1
2023-03-21T09:54:01.881Z,10.2
2023-03-21T09:55:01.820Z,10.2
2023-03-21T09:56:01.741Z,10.3
2023-03-21T09:57:01.730Z,10.3
2023-03-21T09:58:01.713Z,10.2
2023-03-21T09:59:01.608Z,10.3
2023-03-21T10:00:01.645Z,10.3
2023-03-21T10:01:01.520Z,10
2023-03-21T10:02:01.774Z,10.1
2023-03-21T10:03:01.808Z,10.2
2023-03-21T10:04:01.706Z,10.2
2023-03-21T10:05:01.746Z,10.4
2023-03-21T10:06:01.797Z,10.2
2023-03-21T10:07:01.644Z,10.4
2023-03-21T10:08:01.684Z,10.2
2023-03-21T10:09:01.526Z,10.4
2023-03-21T10:10:01.489Z,10.3
2023-03-21T10:11:01.421Z,10.3
2023-03-21T10:12:01.455Z,10.5
2023-03-21T10:13:02.427Z,10.4
2023-03-21T10:14:02.276Z,10.3
2023-03-21T10:15:02.336Z,10.4
2023-03-21T10:16:02.187Z,10.4
2023-03-21T10:17:01.403Z,10.5
2023-03-21T10:18:01.408Z,10.6
2023-03-21T10:19:02.358Z,10.4
2023-03-21T10:20:02.259Z,10.4
2023-03-21T10:21:02.363Z,10.5
2023-03-21T10:22:03.564Z,10.6
2023-03-21T10:23:02.206Z,10.6
2023-03-21T10:24:02.212Z,10.5
2023-03-21T10:25:02.121Z,10.4
2023-03-21T10:26:02.160Z,10.4
2023-03-21T10:27:02.424Z,10.5
2023-03-21T10:28:01.353Z,10.6
2023-03-21T10:29:02.369Z,10.6
2023-03-21T10:30:01.335Z,10.5
2023-03-21T10:31:02.381Z,10.5
2023-03-21T10:32:02.051Z,10.5
2023-03-21T10:33:02.345Z,10.5
2023-03-21T10:34:01.328Z,10.4
2023-03-21T10:35:02.407Z,10.4
2023-03-21T10:36:02.349Z,10.4
2023-03-21T10:37:01.433Z,10.4
2023-03-21T10:38:02.397Z,10.4
2023-03-21T10:39:02.261Z,10.4
2023-03-21T10:40:02.302Z,10.5
2023-03-21T10:41:02.229Z,10.5
2023-03-21T10:42:02.244Z,10.5
2023-03-21T10:43:02.110Z,10.5
2023-03-21T10:44:02.173Z,10.3
2023-03-21T10:45:02.041Z,10.4
2023-03-21T10:46:02.101Z,10.4
2023-03-21T10:47:01.749Z,10.4
2023-03-21T10:48:02.536Z,10.4
2023-03-21T10:49:01.963Z,10.4
2023-03-21T10:50:09.106Z,10.4
2023-03-21T10:51:02.148Z,10.4
2023-03-21T10:52:02.110Z,10.5
2023-03-21T10:53:02.165Z,10.5
2023-03-21T10:54:01.997Z,10.5
2023-03-21T10:55:01.924Z,10.4
2023-03-21T10:56:01.974Z,10.5
2023-03-21T10:57:01.825Z,10.5
2023-03-21T10:58:01.769Z,10.5
2023-03-21T10:59:01.791Z,10.6
2023-03-21T11:00:02.541Z,10.6
2023-03-21T11:01:01.464Z,10.5
2023-03-21T11:02:01.760Z,10.7
2023-03-21T11:03:01.775Z,10.7
2023-03-21T11:04:01.602Z,10.6
2023-03-21T11:05:01.649Z,10.6
2023-03-21T11:06:01.495Z,10.7
2023-03-21T11:07:01.579Z,10.7
2023-03-21T11:08:01.494Z,10.7
2023-03-21T11:09:01.458Z,10.7
2023-03-21T11:10:02.431Z,10.8
2023-03-21T11:11:02.294Z,10.8
2023-03-21T11:12:02.373Z,10.7
2023-03-21T11:13:02.245Z,10.8
2023-03-21T11:14:02.260Z,10.7
2023-03-21T11:15:02.179Z,10.9
2023-03-21T11:16:02.224Z,10.8
2023-03-21T11:17:02.212Z,11.1
2023-03-21T11:18:02.315Z,11.3
2023-03-21T11:19:02.217Z,11.4
2023-03-21T11:20:02.300Z,11.5
2023-03-21T11:21:02.121Z,11.5
2023-03-21T11:22:02.178Z,11.6
2023-03-21T11:23:02.013Z,11.5
2023-03-21T11:24:01.963Z,11.6
2023-03-21T11:25:02.014Z,11.5
2023-03-21T11:26:01.868Z,11.6
2023-03-21T11:27:01.808Z,11.7
2023-03-21T11:28:01.813Z,11.7
2023-03-21T11:29:01.702Z,11.7
2023-03-21T11:30:01.768Z,11.7
2023-03-21T11:31:01.718Z,11.7
2023-03-21T11:32:01.763Z,11.4
2023-03-21T11:33:01.796Z,11.4
2023-03-21T11:34:01.679Z,11.5
2023-03-21T11:35:01.731Z,11.5
2023-03-21T11:36:01.760Z,11.6
2023-03-21T11:37:01.869Z,11.4
2023-03-21T11:38:01.899Z,11.4
2023-03-21T11:39:01.747Z,11.5
2023-03-21T11:40:01.681Z,11.4
2023-03-21T11:41:01.720Z,11.4
2023-03-21T11:42:01.602Z,11.5
2023-03-21T11:43:01.622Z,11.5
2023-03-21T11:44:01.467Z,11.4
2023-03-21T11:45:01.537Z,11.6
2023-03-21T11:46:01.493Z,11.5
2023-03-21T11:47:01.565Z,11.5
2023-03-21T11:48:01.692Z,11.5
2023-03-21T11:49:01.653Z,11.3
2023-03-21T11:50:05.164Z,11.4
2023-03-21T11:51:02.342Z,11.3
2023-03-21T11:52:02.217Z,11.3
2023-03-21T11:53:02.290Z,11.2
2023-03-21T11:54:02.193Z,11.3
2023-03-21T11:55:02.257Z,11.2
2023-03-21T11:56:02.103Z,11.2
2023-03-21T11:57:02.165Z,11.3
2023-03-21T11:58:12.021Z,11.2
2023-03-21T11:59:01.871Z,11.2
2023-03-21T12:00:02.273Z,11.1
2023-03-21T12:01:02.189Z,11.1
2023-03-21T12:02:01.738Z,11.1
2023-03-21T12:03:01.836Z,11.2
2023-03-21T12:04:01.812Z,11.1
2023-03-21T12:05:01.902Z,11.2
2023-03-21T12:06:01.975Z,11.2
2023-03-21T12:07:01.808Z,11.2
2023-03-21T12:08:01.762Z,11.2
2023-03-21T12:09:01.804Z,11.3
2023-03-21T12:10:01.666Z,11.3
2023-03-21T12:11:01.671Z,11.3
2023-03-21T12:12:01.496Z,11.2
2023-03-21T12:13:01.550Z,11.3
2023-03-21T12:14:01.372Z,11.3
2023-03-21T12:15:01.365Z,11.3
2023-03-21T12:16:02.348Z,11.2
2023-03-21T12:17:01.942Z,11.2
2023-03-21T12:18:01.997Z,11.3
2023-03-21T12:19:01.855Z,11.2
2023-03-21T12:20:01.797Z,11.2
2023-03-21T12:21:01.785Z,11.2
2023-03-21T12:22:01.684Z,11.2
2023-03-21T12:23:01.829Z,11.2
2023-03-21T12:24:01.720Z,11.2
2023-03-21T12:25:01.716Z,11.1
2023-03-21T12:26:01.575Z,11.1
2023-03-21T12:27:01.587Z,11.1
2023-03-21T12:28:02.888Z,11
2023-03-21T12:29:01.857Z,10.7
2023-03-21T12:30:01.888Z,10.7
2023-03-21T12:31:01.772Z,10.8
2023-03-21T12:32:01.641Z,11
2023-03-21T12:33:01.692Z,10.9
2023-03-21T12:34:01.531Z,10.9
2023-03-21T12:35:01.558Z,10.8
2023-03-21T12:36:01.446Z,10.8
2023-03-21T12:37:01.426Z,11
2023-03-21T12:38:02.383Z,11
2023-03-21T12:39:02.280Z,11
2023-03-21T12:40:02.283Z,11
2023-03-21T12:41:02.214Z,11
2023-03-21T12:42:02.266Z,11
2023-03-21T12:43:02.116Z,10.9
2023-03-21T12:44:02.188Z,11
2023-03-21T12:45:04.094Z,11
2023-03-21T12:46:01.492Z,11.1
2023-03-21T12:47:02.033Z,11.1
2023-03-21T12:48:02.155Z,11.1
2023-03-21T12:49:02.584Z,11
2023-03-21T12:50:01.502Z,11
2023-03-21T12:51:01.364Z,10.9
2023-03-21T12:52:01.425Z,10.9
2023-03-21T12:53:02.356Z,11
2023-03-21T12:54:02.259Z,11.1
2023-03-21T12:55:02.320Z,11
2023-03-21T12:56:02.165Z,10.9
2023-03-21T12:57:02.219Z,10.9
2023-03-21T12:58:02.073Z,10.9
2023-03-21T12:59:02.128Z,11
2023-03-21T13:00:02.601Z,11
2023-03-21T13:01:01.488Z,11
2023-03-21T13:02:01.862Z,11.1
2023-03-21T13:03:01.935Z,11.1
2023-03-21T13:04:01.799Z,11.1
2023-03-21T13:05:01.805Z,11
2023-03-21T13:06:01.714Z,10.9
2023-03-21T13:07:01.609Z,10.7
2023-03-21T13:08:01.643Z,10.8
2023-03-21T13:09:01.522Z,10.9
2023-03-21T13:10:01.525Z,10.9
2023-03-21T13:11:01.471Z,10.9
2023-03-21T13:12:01.386Z,10.9
2023-03-21T13:13:02.532Z,11
2023-03-21T13:14:02.258Z,10.9
2023-03-21T13:15:02.633Z,10.8
2023-03-21T13:16:01.495Z,10.6
2023-03-21T13:17:02.263Z,10.8
2023-03-21T13:18:02.275Z,10.9
2023-03-21T13:19:02.179Z,10.8
2023-03-21T13:20:02.232Z,10.7
2023-03-21T13:21:02.125Z,10.8
2023-03-21T13:22:02.128Z,10.9
2023-03-21T13:23:01.958Z,10.8
2023-03-21T13:24:01.930Z,10.9
2023-03-21T13:25:01.977Z,10.9
2023-03-21T13:26:01.819Z,10.9
2023-03-21T13:27:01.761Z,11
2023-03-21T13:28:01.824Z,11
2023-03-21T13:29:01.663Z,10.9
2023-03-21T13:30:01.722Z,11
2023-03-21T13:31:01.496Z,11
2023-03-21T13:32:01.499Z,10.9
2023-03-21T13:33:01.524Z,10.9
2023-03-21T13:34:01.383Z,11
2023-03-21T13:35:01.368Z,11
2023-03-21T13:36:02.382Z,11
2023-03-21T13:37:02.307Z,11.1
2023-03-21T13:38:02.313Z,11.1
2023-03-21T13:39:02.207Z,11.1
2023-03-21T13:40:02.329Z,11.1
2023-03-21T13:41:02.175Z,11.2
2023-03-21T13:42:02.235Z,11.3
2023-03-21T13:43:02.109Z,11.4